Shokyu Maru — JG5288 — position and weather

sailwx.info

Track history (hours):
 
Tides and Currents Weather Stations Pressure Air Temp Water Temp Dewpoint Dewpoint Depression Visibility Wind Speed Wind Dir Waves Ship Positions

Shokyu Maru

Last reported at 2014-Aug-23 03:33 UTC. Time now 2014-Aug-23 19:21 UTC.
Position N 35°32' E 139°52'.

Length 91 m; draft 4.1 m.

Type: Tanker. MMSI: 431000253.

Date/timePositionNaut miles runAvg speedWind from/ knotsBaromVisibWave heightAir tempDewpointWater temp
2014-Aug-23 03:33N 35°32' E 139°52'7 7.1
2014-Aug-23 02:33N 35°37' E 139°58'3 3.3
2014-Aug-23 01:31N 35°41' E 139°56'0 0.0
2014-Aug-23 00:16N 35°41' E 139°56'0 0.0
2014-Aug-22 23:31N 35°41' E 139°56'0 0.0
2014-Aug-22 22:31N 35°41' E 139°57'1 1.0
2014-Aug-22 21:33N 35°40' E 139°57'4 4.3
2014-Aug-22 20:32N 35°36' E 139°55'0 0.0
2014-Aug-22 19:33N 35°36' E 139°55'0 0.0
2014-Aug-22 18:33N 35°36' E 139°55'0 0.0
2014-Aug-22 17:33N 35°36' E 139°55'0 0.0
2014-Aug-22 16:33N 35°36' E 139°55'0 0.0
2014-Aug-22 15:33N 35°36' E 139°55'0 0.0
2014-Aug-22 14:33N 35°36' E 139°55'0 0.0
2014-Aug-22 13:33N 35°36' E 139°55'0 0.0
2014-Aug-22 12:33N 35°36' E 139°55'0 0.0
2014-Aug-22 11:33N 35°36' E 139°55'0 0.0
2014-Aug-22 10:33N 35°36' E 139°55'1 0.5
2014-Aug-22 09:33N 35°36' E 139°56'7 6.1
2014-Aug-22 08:23N 35°32' E 140°03'0 0.0
2014-Aug-22 07:32N 35°32' E 140°03'0 0.0
2014-Aug-22 06:23N 35°32' E 140°03'0 0.0
2014-Aug-22 05:29N 35°32' E 140°03'0 0.0
2014-Aug-22 04:29N 35°32' E 140°03'2 2.5
2014-Aug-22 03:33N 35°33' E 140°01'5 5.3
2014-Aug-22 02:33N 35°38' E 139°58'3 2.9
2014-Aug-22 01:31N 35°41' E 139°56'0 0.0
2014-Aug-22 00:34N 35°41' E 139°56'0 0.0
2014-Aug-21 23:31N 35°41' E 139°56'0 0.0
2014-Aug-21 22:28N 35°41' E 139°56'1 1.3
2014-Aug-21 21:33N 35°40' E 139°57'4 4.3
2014-Aug-21 20:32N 35°36' E 139°55'0 0.1
2014-Aug-21 19:32N 35°36' E 139°55'0 0.0
2014-Aug-21 18:29N 35°36' E 139°55'0 0.1
2014-Aug-21 17:32N 35°36' E 139°55'0 0.0
2014-Aug-21 16:32N 35°36' E 139°55'0 0.1
2014-Aug-21 15:29N 35°36' E 139°55'0 0.0
2014-Aug-21 14:32N 35°36' E 139°55'1 0.8
2014-Aug-21 13:33N 35°35' E 139°56'7 7.1
2014-Aug-21 12:31N 35°29' E 140°01'0 0.0
2014-Aug-21 11:31N 35°29' E 140°01'0 0.0
2014-Aug-21 10:28N 35°29' E 140°01'0 0.0
2014-Aug-21 09:31N 35°29' E 140°01'0 0.0
2014-Aug-21 08:31N 35°29' E 140°01'0 0.0
2014-Aug-21 07:25N 35°29' E 140°01'0 0.0
2014-Aug-21 06:28N 35°29' E 140°01'0 0.0
2014-Aug-21 05:31N 35°29' E 140°01'0 0.0
2014-Aug-21 04:28N 35°29' E 140°01'4 3.9
2014-Aug-21 03:33N 35°32' E 139°59'8 8.2
2014-Aug-21 02:33N 35°40' E 139°57'1 0.8
2014-Aug-21 01:31N 35°41' E 139°56'0 0.0
2014-Aug-21 00:25N 35°41' E 139°56'0 0.0
2014-Aug-20 23:31N 35°41' E 139°56'0 0.0
2014-Aug-20 22:28N 35°41' E 139°56'4 4.7
2014-Aug-20 21:34N 35°36' E 139°57'2 1.5
2014-Aug-20 20:32N 35°35' E 139°55'0 0.0
2014-Aug-20 19:33N 35°35' E 139°55'0 0.0
2014-Aug-20 18:33N 35°35' E 139°55'0 0.0
2014-Aug-20 17:33N 35°35' E 139°55'0 0.0
2014-Aug-20 16:33N 35°35' E 139°55'0 0.0
2014-Aug-20 15:33N 35°35' E 139°55'0 0.0
2014-Aug-20 14:33N 35°35' E 139°55'0 0.0
2014-Aug-20 13:33N 35°35' E 139°55'0 0.0
2014-Aug-20 12:33N 35°35' E 139°55'1 1.5
2014-Aug-20 11:33N 35°34' E 139°54'9 9.1
2014-Aug-20 10:33N 35°28' E 139°46'6 6.3
2014-Aug-20 09:33N 35°24' E 139°40'0 0.1
2014-Aug-20 08:23N 35°24' E 139°40'0 0.0
2014-Aug-20 07:32N 35°24' E 139°40'0 0.0
2014-Aug-20 06:32N 35°24' E 139°40'0 0.0
2014-Aug-20 05:32N 35°24' E 139°40'4 4.1
2014-Aug-20 04:33N 35°26' E 139°44'9 8.8
2014-Aug-20 03:33N 35°32' E 139°52'8 8.4
2014-Aug-20 02:33N 35°38' E 139°58'3 2.6
2014-Aug-20 01:29N 35°41' E 139°56'0 0.0
2014-Aug-20 00:14N 35°41' E 139°56'0 0.0
2014-Aug-19 23:32N 35°41' E 139°56'0 0.0
2014-Aug-19 22:29N 35°41' E 139°56'2 1.6
2014-Aug-19 21:33N 35°39' E 139°58'5 4.3
2014-Aug-19 20:29N 35°35' E 139°55'0 0.1
2014-Aug-19 19:32N 35°35' E 139°55'0 0.0
2014-Aug-19 18:32N 35°35' E 139°55'0 0.0
2014-Aug-19 17:32N 35°35' E 139°55'0 0.0
2014-Aug-19 16:32N 35°35' E 139°55'0 0.0
2014-Aug-19 15:32N 35°35' E 139°55'0 0.0
2014-Aug-19 14:23N 35°35' E 139°55'0 0.0
2014-Aug-19 13:29N 35°35' E 139°55'0 0.0
2014-Aug-19 12:23N 35°35' E 139°55'5 6.2
2014-Aug-19 11:33N 35°32' E 139°51'5 4.5
2014-Aug-19 10:32N 35°30' E 139°45'0 0.0
2014-Aug-19 09:32N 35°30' E 139°45'0 0.0
2014-Aug-19 08:32N 35°30' E 139°45'0 0.0
2014-Aug-19 07:32N 35°30' E 139°45'0 0.0
2014-Aug-19 06:33N 35°30' E 139°45'3 3.4
2014-Aug-19 05:33N 35°27' E 139°44'4 3.8
2014-Aug-19 04:33N 35°28' E 139°48'7 7.5
2014-Aug-19 03:33N 35°34' E 139°54'7 6.6
2014-Aug-19 02:33N 35°40' E 139°57'1 0.7
2014-Aug-19 01:31N 35°41' E 139°56'0 0.0
2014-Aug-19 00:28N 35°41' E 139°56'0 0.1
2014-Aug-18 23:31N 35°41' E 139°57'0 0.0
2014-Aug-18 22:22N 35°41' E 139°57'5 5.9
2014-Aug-18 21:33N 35°36' E 139°56'2 1.6
2014-Aug-18 20:33N 35°35' E 139°55'0 0.0
2014-Aug-18 19:33N 35°35' E 139°55'0 0.0
2014-Aug-18 18:26N 35°35' E 139°55'0 0.0
2014-Aug-18 17:31N 35°35' E 139°55'0 0.0
2014-Aug-18 16:27N 35°35' E 139°55'6 6.9
2014-Aug-18 15:33N 35°31' E 139°49'2 2.4
2014-Aug-18 14:31N 35°31' E 139°46'0 0.0
2014-Aug-18 13:28N 35°31' E 139°46'0 0.0
2014-Aug-18 12:31N 35°31' E 139°46'0 0.0
2014-Aug-18 11:28N 35°31' E 139°46'0 0.0
2014-Aug-18 10:25N 35°31' E 139°46'0 0.0
2014-Aug-18 09:28N 35°31' E 139°46'0 0.0
2014-Aug-18 08:31N 35°31' E 139°46'0 0.0
2014-Aug-18 07:31N 35°31' E 139°46'4 4.4
2014-Aug-18 06:33N 35°29' E 139°42'6 5.8
2014-Aug-18 05:32N 35°29' E 139°49'0 0.0
2014-Aug-18 04:32N 35°29' E 139°49'0 0.1
2014-Aug-18 03:29N 35°29' E 139°49'7 7.6
2014-Aug-18 02:34N 35°34' E 139°55'6 6.4
2014-Aug-18 01:33N 35°41' E 139°57'0 0.1
2014-Aug-18 00:27N 35°41' E 139°56'6 0.9
2014-Aug-17 18:32N 35°35' E 139°55'0 0.0
2014-Aug-17 17:32N 35°35' E 139°55'0 0.0
2014-Aug-17 16:32N 35°35' E 139°55'0 0.0
2014-Aug-17 15:32N 35°35' E 139°55'0 0.0
2014-Aug-17 14:32N 35°35' E 139°55'0 0.1
2014-Aug-17 13:32N 35°35' E 139°55'0 0.0
2014-Aug-17 12:32N 35°35' E 139°55'0 0.0
2014-Aug-17 11:29N 35°35' E 139°55'1 0.9
2014-Aug-17 10:33N 35°35' E 139°54'8 8.3
2014-Aug-17 09:33N 35°30' E 139°46'0 0.4
2014-Aug-17 08:33N 35°30' E 139°45'0 0.0
2014-Aug-17 07:32N 35°30' E 139°45'0 0.0
2014-Aug-17 06:33N 35°30' E 139°45'1 0.5
2014-Aug-17 05:33N 35°30' E 139°45'3 2.9
2014-Aug-17 04:33N 35°27' E 139°44'6 5.7
2014-Aug-17 03:33N 35°29' E 139°50'10 9.7
2014-Aug-17 02:33N 35°37' E 139°58'4 3.2
2014-Aug-17 01:25N 35°41' E 139°56'0 0.0
2014-Aug-17 00:28N 35°41' E 139°56'0 0.0
2014-Aug-16 23:31N 35°41' E 139°56'0 0.0
2014-Aug-16 22:31N 35°41' E 139°56'2 2.2
2014-Aug-16 21:33N 35°39' E 139°58'4 4.2
2014-Aug-16 20:31N 35°36' E 139°55'0 0.0
2014-Aug-16 19:31N 35°35' E 139°55'0 0.0
2014-Aug-16 18:31N 35°36' E 139°55'0 0.0
2014-Aug-16 17:31N 35°35' E 139°55'0 0.0
2014-Aug-16 16:31N 35°35' E 139°55'0 0.0
2014-Aug-16 15:31N 35°35' E 139°55'0 0.0
2014-Aug-16 14:31N 35°35' E 139°55'0 0.0
2014-Aug-16 13:31N 35°35' E 139°55'2 1.7
2014-Aug-16 12:33N 35°35' E 139°57'6 5.8
2014-Aug-16 11:31N 35°32' E 140°03'0 0.0
2014-Aug-16 10:31N 35°32' E 140°03'0 0.0
2014-Aug-16 09:31N 35°32' E 140°03'0 0.0
2014-Aug-16 08:31N 35°32' E 140°03'0 0.1
2014-Aug-16 07:33N 35°32' E 140°03'7 7.4
2014-Aug-16 06:33N 35°35' E 139°55'5 5.1
2014-Aug-16 05:32N 35°41' E 139°57'0 0.0
2014-Aug-16 04:32N 35°41' E 139°57'0 0.0
2014-Aug-16 03:32N 35°41' E 139°57'0 0.0
2014-Aug-16 02:20N 35°41' E 139°57'1 0.7
2014-Aug-16 01:33N 35°40' E 139°57'5 5.2
2014-Aug-16 00:33N 35°35' E 139°55'0 0.1
2014-Aug-15 23:33N 35°36' E 139°55'0 0.0
2014-Aug-15 22:22N 35°36' E 139°55'0 0.0
2014-Aug-15 21:31N 35°36' E 139°55'0 0.0
2014-Aug-15 20:25N 35°36' E 139°55'0 0.1
2014-Aug-15 19:28N 35°36' E 139°55'0 0.0
2014-Aug-15 18:28N 35°36' E 139°55'0 0.0
2014-Aug-15 17:31N 35°36' E 139°55'0 0.0
2014-Aug-15 16:31N 35°36' E 139°55'0 0.0
2014-Aug-15 15:28N 35°36' E 139°55'0 0.0
2014-Aug-15 14:31N 35°36' E 139°55'0 0.0
2014-Aug-15 13:31N 35°36' E 139°55'0 0.1
2014-Aug-15 12:33N 35°36' E 139°55'7 7.1
2014-Aug-15 11:34N 35°30' E 139°49'2 2.4
2014-Aug-15 10:33N 35°31' E 139°46'0 0.0
2014-Aug-15 09:33N 35°31' E 139°46'0 0.0
2014-Aug-15 08:18N 35°31' E 139°46'0 0.0
2014-Aug-15 07:33N 35°31' E 139°46'0 0.0
2014-Aug-15 06:24N 35°31' E 139°46'5 5.6
2014-Aug-15 05:34N 35°27' E 139°43'5 5.2
2014-Aug-15 04:33N 35°29' E 139°49'5 4.7
2014-Aug-15 03:33N 35°32' E 139°53'5 5.2
2014-Aug-15 02:33N 35°36' E 139°57'4 4.2
2014-Aug-15 01:33N 35°41' E 139°56'0 0.0
2014-Aug-15 00:24N 35°41' E 139°56'0 0.0
2014-Aug-14 23:30N 35°41' E 139°56'0 0.0
2014-Aug-14 22:33N 35°41' E 139°56'1 0.9
2014-Aug-14 21:33N 35°40' E 139°57'4 4.0
2014-Aug-14 20:32N 35°36' E 139°55'0 0.0
2014-Aug-14 19:29N 35°36' E 139°55'0 0.0
2014-Aug-14 18:26N 35°36' E 139°55'0 0.0
2014-Aug-14 17:32N 35°36' E 139°55'0 0.1
2014-Aug-14 16:32N 35°36' E 139°55'0 0.1
2014-Aug-14 15:32N 35°36' E 139°55'0 0.0
2014-Aug-14 14:32N 35°36' E 139°55'0 0.0
2014-Aug-14 13:32N 35°36' E 139°55'0 0.0
2014-Aug-14 12:32N 35°36' E 139°55'0 0.0
2014-Aug-14 11:32N 35°36' E 139°55'0 0.0
2014-Aug-14 10:32N 35°36' E 139°55'0 0.0
2014-Aug-14 09:32N 35°36' E 139°55'0 0.0
2014-Aug-14 08:32N 35°36' E 139°55'0 0.0
2014-Aug-14 07:32N 35°36' E 139°55'0 0.0
2014-Aug-14 06:32N 35°36' E 139°55'0 0.0
2014-Aug-14 05:29N 35°36' E 139°55'0 0.0
2014-Aug-14 04:32N 35°36' E 139°55'8 7.9
2014-Aug-14 03:33N 35°30' E 139°60'1 1.4
2014-Aug-14 02:32N 35°28' E 140°01'0 0.0
2014-Aug-14 01:32N 35°28' E 140°01'0 0.0
2014-Aug-14 00:32N 35°28' E 140°01'0 0.0
2014-Aug-13 23:32N 35°28' E 140°01'0 0.0
2014-Aug-13 22:29N 35°28' E 140°01'2 2.0
2014-Aug-13 21:33N 35°30' E 139°59'6 5.3
2014-Aug-13 20:25N 35°35' E 139°55'0 0.0
2014-Aug-13 19:31N 35°35' E 139°55'0 0.0
2014-Aug-13 18:31N 35°35' E 139°55'0 0.0
2014-Aug-13 17:31N 35°35' E 139°55'0 0.0
2014-Aug-13 16:25N 35°35' E 139°55'0 0.0
2014-Aug-13 15:31N 35°35' E 139°55'0 0.0
2014-Aug-13 14:31N 35°35' E 139°55'0 0.0
2014-Aug-13 13:31N 35°35' E 139°55'0 0.0
2014-Aug-13 12:31N 35°35' E 139°55'0 0.1
2014-Aug-13 11:31N 35°35' E 139°55'3 2.9
2014-Aug-13 10:34N 35°37' E 139°57'4 3.3
2014-Aug-13 09:25N 35°41' E 139°56'0 0.0
2014-Aug-13 08:25N 35°41' E 139°56'0 0.0
2014-Aug-13 07:28N 35°41' E 139°56'0 0.0
2014-Aug-13 06:31N 35°41' E 139°56'3 3.4
2014-Aug-13 05:33N 35°38' E 139°58'3 2.6
2014-Aug-13 04:28N 35°36' E 139°55'  
Track history (hours):
 
Tides and Currents Weather Stations Pressure Air Temp Water Temp Dewpoint Dewpoint Depression Visibility Wind Speed Wind Dir Waves Ship Positions

Shokyu Maru

Last reported at 2014-Aug-23 03:33 UTC. Time now 2014-Aug-23 19:21 UTC.
Position N 35°32' E 139°52'.

Length 91 m; draft 4.1 m.

Type: Tanker. MMSI: 431000253.

Date/timePositionNaut miles runAvg speedWind from/ knotsBaromVisibWave heightAir tempDewpointWater temp
2014-Aug-23 03:33N 35°32' E 139°52'7 7.1
2014-Aug-23 02:33N 35°37' E 139°58'3 3.3
2014-Aug-23 01:31N 35°41' E 139°56'0 0.0
2014-Aug-23 00:16N 35°41' E 139°56'0 0.0
2014-Aug-22 23:31N 35°41' E 139°56'0 0.0
2014-Aug-22 22:31N 35°41' E 139°57'1 1.0
2014-Aug-22 21:33N 35°40' E 139°57'4 4.3
2014-Aug-22 20:32N 35°36' E 139°55'0 0.0
2014-Aug-22 19:33N 35°36' E 139°55'0 0.0
2014-Aug-22 18:33N 35°36' E 139°55'0 0.0
2014-Aug-22 17:33N 35°36' E 139°55'0 0.0
2014-Aug-22 16:33N 35°36' E 139°55'0 0.0
2014-Aug-22 15:33N 35°36' E 139°55'0 0.0
2014-Aug-22 14:33N 35°36' E 139°55'0 0.0
2014-Aug-22 13:33N 35°36' E 139°55'0 0.0
2014-Aug-22 12:33N 35°36' E 139°55'0 0.0
2014-Aug-22 11:33N 35°36' E 139°55'0 0.0
2014-Aug-22 10:33N 35°36' E 139°55'1 0.5
2014-Aug-22 09:33N 35°36' E 139°56'7 6.1
2014-Aug-22 08:23N 35°32' E 140°03'0 0.0
2014-Aug-22 07:32N 35°32' E 140°03'0 0.0
2014-Aug-22 06:23N 35°32' E 140°03'0 0.0
2014-Aug-22 05:29N 35°32' E 140°03'0 0.0
2014-Aug-22 04:29N 35°32' E 140°03'2 2.5
2014-Aug-22 03:33N 35°33' E 140°01'5 5.3
2014-Aug-22 02:33N 35°38' E 139°58'3 2.9
2014-Aug-22 01:31N 35°41' E 139°56'0 0.0
2014-Aug-22 00:34N 35°41' E 139°56'0 0.0
2014-Aug-21 23:31N 35°41' E 139°56'0 0.0
2014-Aug-21 22:28N 35°41' E 139°56'1 1.3
2014-Aug-21 21:33N 35°40' E 139°57'4 4.3
2014-Aug-21 20:32N 35°36' E 139°55'0 0.1
2014-Aug-21 19:32N 35°36' E 139°55'0 0.0
2014-Aug-21 18:29N 35°36' E 139°55'0 0.1
2014-Aug-21 17:32N 35°36' E 139°55'0 0.0
2014-Aug-21 16:32N 35°36' E 139°55'0 0.1
2014-Aug-21 15:29N 35°36' E 139°55'0 0.0
2014-Aug-21 14:32N 35°36' E 139°55'1 0.8
2014-Aug-21 13:33N 35°35' E 139°56'7 7.1
2014-Aug-21 12:31N 35°29' E 140°01'0 0.0
2014-Aug-21 11:31N 35°29' E 140°01'0 0.0
2014-Aug-21 10:28N 35°29' E 140°01'0 0.0
2014-Aug-21 09:31N 35°29' E 140°01'0 0.0
2014-Aug-21 08:31N 35°29' E 140°01'0 0.0
2014-Aug-21 07:25N 35°29' E 140°01'0 0.0
2014-Aug-21 06:28N 35°29' E 140°01'0 0.0
2014-Aug-21 05:31N 35°29' E 140°01'0 0.0
2014-Aug-21 04:28N 35°29' E 140°01'4 3.9
2014-Aug-21 03:33N 35°32' E 139°59'8 8.2
2014-Aug-21 02:33N 35°40' E 139°57'1 0.8
2014-Aug-21 01:31N 35°41' E 139°56'0 0.0
2014-Aug-21 00:25N 35°41' E 139°56'0 0.0
2014-Aug-20 23:31N 35°41' E 139°56'0 0.0
2014-Aug-20 22:28N 35°41' E 139°56'4 4.7
2014-Aug-20 21:34N 35°36' E 139°57'2 1.5
2014-Aug-20 20:32N 35°35' E 139°55'0 0.0
2014-Aug-20 19:33N 35°35' E 139°55'0 0.0
2014-Aug-20 18:33N 35°35' E 139°55'0 0.0
2014-Aug-20 17:33N 35°35' E 139°55'0 0.0
2014-Aug-20 16:33N 35°35' E 139°55'0 0.0
2014-Aug-20 15:33N 35°35' E 139°55'0 0.0
2014-Aug-20 14:33N 35°35' E 139°55'0 0.0
2014-Aug-20 13:33N 35°35' E 139°55'0 0.0
2014-Aug-20 12:33N 35°35' E 139°55'1 1.5
2014-Aug-20 11:33N 35°34' E 139°54'9 9.1
2014-Aug-20 10:33N 35°28' E 139°46'6 6.3
2014-Aug-20 09:33N 35°24' E 139°40'0 0.1
2014-Aug-20 08:23N 35°24' E 139°40'0 0.0
2014-Aug-20 07:32N 35°24' E 139°40'0 0.0
2014-Aug-20 06:32N 35°24' E 139°40'0 0.0
2014-Aug-20 05:32N 35°24' E 139°40'4 4.1
2014-Aug-20 04:33N 35°26' E 139°44'9 8.8
2014-Aug-20 03:33N 35°32' E 139°52'8 8.4
2014-Aug-20 02:33N 35°38' E 139°58'3 2.6
2014-Aug-20 01:29N 35°41' E 139°56'0 0.0
2014-Aug-20 00:14N 35°41' E 139°56'0 0.0
2014-Aug-19 23:32N 35°41' E 139°56'0 0.0
2014-Aug-19 22:29N 35°41' E 139°56'2 1.6
2014-Aug-19 21:33N 35°39' E 139°58'5 4.3
2014-Aug-19 20:29N 35°35' E 139°55'0 0.1
2014-Aug-19 19:32N 35°35' E 139°55'0 0.0
2014-Aug-19 18:32N 35°35' E 139°55'0 0.0
2014-Aug-19 17:32N 35°35' E 139°55'0 0.0
2014-Aug-19 16:32N 35°35' E 139°55'0 0.0
2014-Aug-19 15:32N 35°35' E 139°55'0 0.0
2014-Aug-19 14:23N 35°35' E 139°55'0 0.0
2014-Aug-19 13:29N 35°35' E 139°55'0 0.0
2014-Aug-19 12:23N 35°35' E 139°55'5 6.2
2014-Aug-19 11:33N 35°32' E 139°51'5 4.5
2014-Aug-19 10:32N 35°30' E 139°45'0 0.0
2014-Aug-19 09:32N 35°30' E 139°45'0 0.0
2014-Aug-19 08:32N 35°30' E 139°45'0 0.0
2014-Aug-19 07:32N 35°30' E 139°45'0 0.0
2014-Aug-19 06:33N 35°30' E 139°45'3 3.4
2014-Aug-19 05:33N 35°27' E 139°44'4 3.8
2014-Aug-19 04:33N 35°28' E 139°48'7 7.5
2014-Aug-19 03:33N 35°34' E 139°54'7 6.6
2014-Aug-19 02:33N 35°40' E 139°57'1 0.7
2014-Aug-19 01:31N 35°41' E 139°56'0 0.0
2014-Aug-19 00:28N 35°41' E 139°56'0 0.1
2014-Aug-18 23:31N 35°41' E 139°57'0 0.0
2014-Aug-18 22:22N 35°41' E 139°57'5 5.9
2014-Aug-18 21:33N 35°36' E 139°56'2 1.6
2014-Aug-18 20:33N 35°35' E 139°55'0 0.0
2014-Aug-18 19:33N 35°35' E 139°55'0 0.0
2014-Aug-18 18:26N 35°35' E 139°55'0 0.0
2014-Aug-18 17:31N 35°35' E 139°55'0 0.0
2014-Aug-18 16:27N 35°35' E 139°55'6 6.9
2014-Aug-18 15:33N 35°31' E 139°49'2 2.4
2014-Aug-18 14:31N 35°31' E 139°46'0 0.0
2014-Aug-18 13:28N 35°31' E 139°46'0 0.0
2014-Aug-18 12:31N 35°31' E 139°46'0 0.0
2014-Aug-18 11:28N 35°31' E 139°46'0 0.0
2014-Aug-18 10:25N 35°31' E 139°46'0 0.0
2014-Aug-18 09:28N 35°31' E 139°46'0 0.0
2014-Aug-18 08:31N 35°31' E 139°46'0 0.0
2014-Aug-18 07:31N 35°31' E 139°46'4 4.4
2014-Aug-18 06:33N 35°29' E 139°42'6 5.8
2014-Aug-18 05:32N 35°29' E 139°49'0 0.0
2014-Aug-18 04:32N 35°29' E 139°49'0 0.1
2014-Aug-18 03:29N 35°29' E 139°49'7 7.6
2014-Aug-18 02:34N 35°34' E 139°55'6 6.4
2014-Aug-18 01:33N 35°41' E 139°57'0 0.1
2014-Aug-18 00:27N 35°41' E 139°56'6 0.9
2014-Aug-17 18:32N 35°35' E 139°55'0 0.0
2014-Aug-17 17:32N 35°35' E 139°55'0 0.0
2014-Aug-17 16:32N 35°35' E 139°55'0 0.0
2014-Aug-17 15:32N 35°35' E 139°55'0 0.0
2014-Aug-17 14:32N 35°35' E 139°55'0 0.1
2014-Aug-17 13:32N 35°35' E 139°55'0 0.0
2014-Aug-17 12:32N 35°35' E 139°55'0 0.0
2014-Aug-17 11:29N 35°35' E 139°55'1 0.9
2014-Aug-17 10:33N 35°35' E 139°54'8 8.3
2014-Aug-17 09:33N 35°30' E 139°46'0 0.4
2014-Aug-17 08:33N 35°30' E 139°45'0 0.0
2014-Aug-17 07:32N 35°30' E 139°45'0 0.0
2014-Aug-17 06:33N 35°30' E 139°45'1 0.5
2014-Aug-17 05:33N 35°30' E 139°45'3 2.9
2014-Aug-17 04:33N 35°27' E 139°44'6 5.7
2014-Aug-17 03:33N 35°29' E 139°50'10 9.7
2014-Aug-17 02:33N 35°37' E 139°58'4 3.2
2014-Aug-17 01:25N 35°41' E 139°56'0 0.0
2014-Aug-17 00:28N 35°41' E 139°56'0 0.0
2014-Aug-16 23:31N 35°41' E 139°56'0 0.0
2014-Aug-16 22:31N 35°41' E 139°56'2 2.2
2014-Aug-16 21:33N 35°39' E 139°58'4 4.2
2014-Aug-16 20:31N 35°36' E 139°55'0 0.0
2014-Aug-16 19:31N 35°35' E 139°55'0 0.0
2014-Aug-16 18:31N 35°36' E 139°55'0 0.0
2014-Aug-16 17:31N 35°35' E 139°55'0 0.0
2014-Aug-16 16:31N 35°35' E 139°55'0 0.0
2014-Aug-16 15:31N 35°35' E 139°55'0 0.0
2014-Aug-16 14:31N 35°35' E 139°55'0 0.0
2014-Aug-16 13:31N 35°35' E 139°55'2 1.7
2014-Aug-16 12:33N 35°35' E 139°57'6 5.8
2014-Aug-16 11:31N 35°32' E 140°03'0 0.0
2014-Aug-16 10:31N 35°32' E 140°03'0 0.0
2014-Aug-16 09:31N 35°32' E 140°03'0 0.0
2014-Aug-16 08:31N 35°32' E 140°03'0 0.1
2014-Aug-16 07:33N 35°32' E 140°03'7 7.4
2014-Aug-16 06:33N 35°35' E 139°55'5 5.1
2014-Aug-16 05:32N 35°41' E 139°57'0 0.0
2014-Aug-16 04:32N 35°41' E 139°57'0 0.0
2014-Aug-16 03:32N 35°41' E 139°57'0 0.0
2014-Aug-16 02:20N 35°41' E 139°57'1 0.7
2014-Aug-16 01:33N 35°40' E 139°57'5 5.2
2014-Aug-16 00:33N 35°35' E 139°55'0 0.1
2014-Aug-15 23:33N 35°36' E 139°55'0 0.0
2014-Aug-15 22:22N 35°36' E 139°55'0 0.0
2014-Aug-15 21:31N 35°36' E 139°55'0 0.0
2014-Aug-15 20:25N 35°36' E 139°55'0 0.1
2014-Aug-15 19:28N 35°36' E 139°55'0 0.0
2014-Aug-15 18:28N 35°36' E 139°55'0 0.0
2014-Aug-15 17:31N 35°36' E 139°55'0 0.0
2014-Aug-15 16:31N 35°36' E 139°55'0 0.0
2014-Aug-15 15:28N 35°36' E 139°55'0 0.0
2014-Aug-15 14:31N 35°36' E 139°55'0 0.0
2014-Aug-15 13:31N 35°36' E 139°55'0 0.1
2014-Aug-15 12:33N 35°36' E 139°55'7 7.1
2014-Aug-15 11:34N 35°30' E 139°49'2 2.4
2014-Aug-15 10:33N 35°31' E 139°46'0 0.0
2014-Aug-15 09:33N 35°31' E 139°46'0 0.0
2014-Aug-15 08:18N 35°31' E 139°46'0 0.0
2014-Aug-15 07:33N 35°31' E 139°46'0 0.0
2014-Aug-15 06:24N 35°31' E 139°46'5 5.6
2014-Aug-15 05:34N 35°27' E 139°43'5 5.2
2014-Aug-15 04:33N 35°29' E 139°49'5 4.7
2014-Aug-15 03:33N 35°32' E 139°53'5 5.2
2014-Aug-15 02:33N 35°36' E 139°57'4 4.2
2014-Aug-15 01:33N 35°41' E 139°56'0 0.0
2014-Aug-15 00:24N 35°41' E 139°56'0 0.0
2014-Aug-14 23:30N 35°41' E 139°56'0 0.0
2014-Aug-14 22:33N 35°41' E 139°56'1 0.9
2014-Aug-14 21:33N 35°40' E 139°57'4 4.0
2014-Aug-14 20:32N 35°36' E 139°55'0 0.0
2014-Aug-14 19:29N 35°36' E 139°55'0 0.0
2014-Aug-14 18:26N 35°36' E 139°55'0 0.0
2014-Aug-14 17:32N 35°36' E 139°55'0 0.1
2014-Aug-14 16:32N 35°36' E 139°55'0 0.1
2014-Aug-14 15:32N 35°36' E 139°55'0 0.0
2014-Aug-14 14:32N 35°36' E 139°55'0 0.0
2014-Aug-14 13:32N 35°36' E 139°55'0 0.0
2014-Aug-14 12:32N 35°36' E 139°55'0 0.0
2014-Aug-14 11:32N 35°36' E 139°55'0 0.0
2014-Aug-14 10:32N 35°36' E 139°55'0 0.0
2014-Aug-14 09:32N 35°36' E 139°55'0 0.0
2014-Aug-14 08:32N 35°36' E 139°55'0 0.0
2014-Aug-14 07:32N 35°36' E 139°55'0 0.0
2014-Aug-14 06:32N 35°36' E 139°55'0 0.0
2014-Aug-14 05:29N 35°36' E 139°55'0 0.0
2014-Aug-14 04:32N 35°36' E 139°55'8 7.9
2014-Aug-14 03:33N 35°30' E 139°60'1 1.4
2014-Aug-14 02:32N 35°28' E 140°01'0 0.0
2014-Aug-14 01:32N 35°28' E 140°01'0 0.0
2014-Aug-14 00:32N 35°28' E 140°01'0 0.0
2014-Aug-13 23:32N 35°28' E 140°01'0 0.0
2014-Aug-13 22:29N 35°28' E 140°01'2 2.0
2014-Aug-13 21:33N 35°30' E 139°59'6 5.3
2014-Aug-13 20:25N 35°35' E 139°55'0 0.0
2014-Aug-13 19:31N 35°35' E 139°55'0 0.0
2014-Aug-13 18:31N 35°35' E 139°55'0 0.0
2014-Aug-13 17:31N 35°35' E 139°55'0 0.0
2014-Aug-13 16:25N 35°35' E 139°55'0 0.0
2014-Aug-13 15:31N 35°35' E 139°55'0 0.0
2014-Aug-13 14:31N 35°35' E 139°55'0 0.0
2014-Aug-13 13:31N 35°35' E 139°55'0 0.0
2014-Aug-13 12:31N 35°35' E 139°55'0 0.1
2014-Aug-13 11:31N 35°35' E 139°55'3 2.9
2014-Aug-13 10:34N 35°37' E 139°57'4 3.3
2014-Aug-13 09:25N 35°41' E 139°56'0 0.0
2014-Aug-13 08:25N 35°41' E 139°56'0 0.0
2014-Aug-13 07:28N 35°41' E 139°56'0 0.0
2014-Aug-13 06:31N 35°41' E 139°56'3 3.4
2014-Aug-13 05:33N 35°38' E 139°58'3 2.6
2014-Aug-13 04:28N 35°36' E 139°55'  

Dump ship's entire track history